sensor_id;sensor_type;location;lat;lon;timestamp;P1;durP1;ratioP1;P2;durP2;ratioP2
4434;SDS011;46552;52.150;8.428;2022-08-19T00:01:59;19.50;;;8.10;;
4434;SDS011;46552;52.150;8.428;2022-08-19T00:04:27;12.23;;;7.83;;
4434;SDS011;46552;52.150;8.428;2022-08-19T00:06:56;17.67;;;9.13;;
4434;SDS011;46552;52.150;8.428;2022-08-19T00:09:24;17.83;;;8.63;;
4434;SDS011;46552;52.150;8.428;2022-08-19T00:11:56;12.30;;;8.30;;
4434;SDS011;46552;52.150;8.428;2022-08-19T00:14:26;15.30;;;8.83;;
4434;SDS011;46552;52.150;8.428;2022-08-19T00:16:56;18.33;;;9.20;;
4434;SDS011;46552;52.150;8.428;2022-08-19T00:19:24;13.90;;;8.83;;
4434;SDS011;46552;52.150;8.428;2022-08-19T00:21:52;10.73;;;7.67;;
4434;SDS011;46552;52.150;8.428;2022-08-19T00:24:21;18.83;;;8.80;;
4434;SDS011;46552;52.150;8.428;2022-08-19T00:26:49;18.40;;;8.40;;
4434;SDS011;46552;52.150;8.428;2022-08-19T00:29:18;17.40;;;8.13;;
4434;SDS011;46552;52.150;8.428;2022-08-19T00:31:49;15.47;;;9.40;;
4434;SDS011;46552;52.150;8.428;2022-08-19T00:34:18;17.80;;;10.50;;
4434;SDS011;46552;52.150;8.428;2022-08-19T00:36:45;13.30;;;9.33;;
4434;SDS011;46552;52.150;8.428;2022-08-19T00:39:14;13.93;;;9.33;;
4434;SDS011;46552;52.150;8.428;2022-08-19T00:41:43;14.57;;;8.50;;
4434;SDS011;46552;52.150;8.428;2022-08-19T00:44:12;12.23;;;8.97;;
4434;SDS011;46552;52.150;8.428;2022-08-19T00:46:43;17.70;;;9.43;;
4434;SDS011;46552;52.150;8.428;2022-08-19T00:49:14;18.23;;;9.47;;
4434;SDS011;46552;52.150;8.428;2022-08-19T00:51:44;19.70;;;10.10;;
4434;SDS011;46552;52.150;8.428;2022-08-19T00:54:14;17.53;;;10.60;;
4434;SDS011;46552;52.150;8.428;2022-08-19T00:56:44;17.57;;;10.30;;
4434;SDS011;46552;52.150;8.428;2022-08-19T00:59:12;18.53;;;10.17;;
4434;SDS011;46552;52.150;8.428;2022-08-19T01:01:42;15.17;;;9.83;;
4434;SDS011;46552;52.150;8.428;2022-08-19T01:04:11;16.00;;;10.20;;
4434;SDS011;46552;52.150;8.428;2022-08-19T01:06:41;13.57;;;8.53;;
4434;SDS011;46552;52.150;8.428;2022-08-19T01:09:08;19.53;;;10.87;;
4434;SDS011;46552;52.150;8.428;2022-08-19T01:11:37;12.50;;;9.17;;
4434;SDS011;46552;52.150;8.428;2022-08-19T01:14:07;22.60;;;10.70;;
4434;SDS011;46552;52.150;8.428;2022-08-19T01:16:35;19.00;;;9.70;;
4434;SDS011;46552;52.150;8.428;2022-08-19T01:19:08;16.70;;;9.83;;
4434;SDS011;46552;52.150;8.428;2022-08-19T01:21:41;22.83;;;10.10;;
4434;SDS011;46552;52.150;8.428;2022-08-19T01:24:14;17.03;;;9.40;;
4434;SDS011;46552;52.150;8.428;2022-08-19T01:26:42;16.37;;;10.50;;
4434;SDS011;46552;52.150;8.428;2022-08-19T01:29:10;18.97;;;10.67;;
4434;SDS011;46552;52.150;8.428;2022-08-19T01:31:37;19.57;;;11.33;;
4434;SDS011;46552;52.150;8.428;2022-08-19T01:34:06;25.40;;;10.80;;
4434;SDS011;46552;52.150;8.428;2022-08-19T01:36:34;14.87;;;10.63;;
4434;SDS011;46552;52.150;8.428;2022-08-19T01:39:08;16.93;;;10.47;;
4434;SDS011;46552;52.150;8.428;2022-08-19T01:41:38;16.97;;;11.73;;
4434;SDS011;46552;52.150;8.428;2022-08-19T01:44:06;16.83;;;9.53;;
4434;SDS011;46552;52.150;8.428;2022-08-19T01:46:34;14.47;;;10.20;;
4434;SDS011;46552;52.150;8.428;2022-08-19T01:49:02;17.60;;;10.40;;
4434;SDS011;46552;52.150;8.428;2022-08-19T01:51:30;17.50;;;10.60;;
4434;SDS011;46552;52.150;8.428;2022-08-19T01:53:58;12.80;;;9.70;;
4434;SDS011;46552;52.150;8.428;2022-08-19T01:56:26;14.97;;;10.07;;
4434;SDS011;46552;52.150;8.428;2022-08-19T01:58:55;16.23;;;10.53;;
4434;SDS011;46552;52.150;8.428;2022-08-19T02:01:27;16.20;;;11.30;;
4434;SDS011;46552;52.150;8.428;2022-08-19T02:03:57;22.27;;;10.87;;
4434;SDS011;46552;52.150;8.428;2022-08-19T02:06:25;17.93;;;11.73;;
4434;SDS011;46552;52.150;8.428;2022-08-19T02:08:53;21.83;;;10.83;;
4434;SDS011;46552;52.150;8.428;2022-08-19T02:11:22;19.90;;;12.80;;
4434;SDS011;46552;52.150;8.428;2022-08-19T02:13:51;26.60;;;13.83;;
4434;SDS011;46552;52.150;8.428;2022-08-19T02:16:20;20.57;;;14.50;;
4434;SDS011;46552;52.150;8.428;2022-08-19T02:18:48;24.53;;;13.97;;
4434;SDS011;46552;52.150;8.428;2022-08-19T02:21:17;20.27;;;12.70;;
4434;SDS011;46552;52.150;8.428;2022-08-19T02:23:45;26.77;;;14.90;;
4434;SDS011;46552;52.150;8.428;2022-08-19T02:26:12;30.17;;;17.10;;
4434;SDS011;46552;52.150;8.428;2022-08-19T02:28:40;30.10;;;17.07;;
4434;SDS011;46552;52.150;8.428;2022-08-19T02:31:09;27.37;;;17.97;;
4434;SDS011;46552;52.150;8.428;2022-08-19T02:33:38;32.43;;;18.20;;
4434;SDS011;46552;52.150;8.428;2022-08-19T02:36:06;25.40;;;14.77;;
4434;SDS011;46552;52.150;8.428;2022-08-19T02:38:36;34.47;;;16.23;;
4434;SDS011;46552;52.150;8.428;2022-08-19T02:41:05;26.00;;;16.70;;
4434;SDS011;46552;52.150;8.428;2022-08-19T02:43:37;26.47;;;15.53;;
4434;SDS011;46552;52.150;8.428;2022-08-19T02:46:10;32.70;;;17.17;;
4434;SDS011;46552;52.150;8.428;2022-08-19T02:48:40;23.90;;;15.90;;
4434;SDS011;46552;52.150;8.428;2022-08-19T02:51:08;27.87;;;16.60;;
4434;SDS011;46552;52.150;8.428;2022-08-19T02:53:35;24.47;;;16.27;;
4434;SDS011;46552;52.150;8.428;2022-08-19T02:56:05;28.53;;;18.47;;
4434;SDS011;46552;52.150;8.428;2022-08-19T02:58:33;27.33;;;16.33;;
4434;SDS011;46552;52.150;8.428;2022-08-19T03:01:00;30.67;;;17.40;;
4434;SDS011;46552;52.150;8.428;2022-08-19T03:03:28;30.90;;;16.60;;
4434;SDS011;46552;52.150;8.428;2022-08-19T03:06:06;28.33;;;17.77;;
4434;SDS011;46552;52.150;8.428;2022-08-19T03:08:35;26.43;;;16.50;;
4434;SDS011;46552;52.150;8.428;2022-08-19T03:11:03;23.00;;;15.97;;
4434;SDS011;46552;52.150;8.428;2022-08-19T03:13:31;27.50;;;15.83;;
4434;SDS011;46552;52.150;8.428;2022-08-19T03:15:58;30.33;;;17.77;;
4434;SDS011;46552;52.150;8.428;2022-08-19T03:18:25;32.43;;;17.87;;
4434;SDS011;46552;52.150;8.428;2022-08-19T03:20:52;31.80;;;18.17;;
4434;SDS011;46552;52.150;8.428;2022-08-19T03:23:21;31.23;;;17.33;;
4434;SDS011;46552;52.150;8.428;2022-08-19T03:25:50;29.57;;;17.90;;
4434;SDS011;46552;52.150;8.428;2022-08-19T03:28:19;28.63;;;17.17;;
4434;SDS011;46552;52.150;8.428;2022-08-19T03:30:56;25.07;;;16.57;;
4434;SDS011;46552;52.150;8.428;2022-08-19T03:33:26;31.13;;;18.07;;
4434;SDS011;46552;52.150;8.428;2022-08-19T03:36:02;24.70;;;17.20;;
4434;SDS011;46552;52.150;8.428;2022-08-19T03:38:34;29.30;;;19.30;;
4434;SDS011;46552;52.150;8.428;2022-08-19T03:41:03;32.93;;;18.10;;
4434;SDS011;46552;52.150;8.428;2022-08-19T03:43:33;31.57;;;17.27;;
4434;SDS011;46552;52.150;8.428;2022-08-19T03:46:02;29.30;;;19.03;;
4434;SDS011;46552;52.150;8.428;2022-08-19T03:48:31;26.07;;;16.13;;
4434;SDS011;46552;52.150;8.428;2022-08-19T03:50:59;29.60;;;19.17;;
4434;SDS011;46552;52.150;8.428;2022-08-19T03:53:27;32.30;;;19.30;;
4434;SDS011;46552;52.150;8.428;2022-08-19T03:55:57;33.33;;;19.23;;
4434;SDS011;46552;52.150;8.428;2022-08-19T03:58:25;25.47;;;17.43;;
4434;SDS011;46552;52.150;8.428;2022-08-19T04:00:54;32.73;;;19.57;;
4434;SDS011;46552;52.150;8.428;2022-08-19T04:03:21;26.67;;;17.93;;
4434;SDS011;46552;52.150;8.428;2022-08-19T04:05:49;26.27;;;18.27;;
4434;SDS011;46552;52.150;8.428;2022-08-19T04:08:17;33.97;;;18.17;;
4434;SDS011;46552;52.150;8.428;2022-08-19T04:10:46;29.37;;;18.60;;
4434;SDS011;46552;52.150;8.428;2022-08-19T04:13:17;30.53;;;18.53;;
4434;SDS011;46552;52.150;8.428;2022-08-19T04:15:45;30.10;;;19.33;;
4434;SDS011;46552;52.150;8.428;2022-08-19T04:18:13;29.47;;;18.40;;
4434;SDS011;46552;52.150;8.428;2022-08-19T04:20:43;36.17;;;20.70;;
4434;SDS011;46552;52.150;8.428;2022-08-19T04:23:13;34.17;;;20.33;;
4434;SDS011;46552;52.150;8.428;2022-08-19T04:25:42;35.03;;;22.63;;
4434;SDS011;46552;52.150;8.428;2022-08-19T04:28:10;36.30;;;20.23;;
4434;SDS011;46552;52.150;8.428;2022-08-19T04:30:41;33.03;;;21.13;;
4434;SDS011;46552;52.150;8.428;2022-08-19T04:33:11;32.17;;;21.90;;
4434;SDS011;46552;52.150;8.428;2022-08-19T04:35:41;31.73;;;20.50;;
4434;SDS011;46552;52.150;8.428;2022-08-19T04:38:12;35.27;;;21.13;;
4434;SDS011;46552;52.150;8.428;2022-08-19T04:40:40;47.60;;;22.50;;
4434;SDS011;46552;52.150;8.428;2022-08-19T04:43:25;34.00;;;21.20;;
4434;SDS011;46552;52.150;8.428;2022-08-19T04:45:55;35.23;;;21.37;;
4434;SDS011;46552;52.150;8.428;2022-08-19T04:48:23;32.20;;;20.57;;
4434;SDS011;46552;52.150;8.428;2022-08-19T04:50:52;38.43;;;23.70;;
4434;SDS011;46552;52.150;8.428;2022-08-19T04:53:22;37.90;;;21.83;;
4434;SDS011;46552;52.150;8.428;2022-08-19T04:55:53;34.53;;;20.67;;
4434;SDS011;46552;52.150;8.428;2022-08-19T04:58:22;36.43;;;20.87;;
4434;SDS011;46552;52.150;8.428;2022-08-19T05:00:50;27.43;;;17.97;;
4434;SDS011;46552;52.150;8.428;2022-08-19T05:03:20;29.97;;;20.13;;
4434;SDS011;46552;52.150;8.428;2022-08-19T05:05:47;36.50;;;20.47;;
4434;SDS011;46552;52.150;8.428;2022-08-19T05:08:15;28.60;;;18.80;;
4434;SDS011;46552;52.150;8.428;2022-08-19T05:10:45;33.97;;;20.10;;
4434;SDS011;46552;52.150;8.428;2022-08-19T05:13:14;34.53;;;21.10;;
4434;SDS011;46552;52.150;8.428;2022-08-19T05:15:42;35.17;;;21.67;;
4434;SDS011;46552;52.150;8.428;2022-08-19T05:18:11;33.37;;;21.27;;
4434;SDS011;46552;52.150;8.428;2022-08-19T05:20:57;34.30;;;20.07;;
4434;SDS011;46552;52.150;8.428;2022-08-19T05:23:41;30.40;;;19.50;;
4434;SDS011;46552;52.150;8.428;2022-08-19T05:26:09;35.30;;;20.43;;
4434;SDS011;46552;52.150;8.428;2022-08-19T05:28:36;35.13;;;19.80;;
4434;SDS011;46552;52.150;8.428;2022-08-19T05:31:03;36.27;;;21.37;;
4434;SDS011;46552;52.150;8.428;2022-08-19T05:33:31;35.70;;;21.10;;
4434;SDS011;46552;52.150;8.428;2022-08-19T05:36:00;31.67;;;18.93;;
4434;SDS011;46552;52.150;8.428;2022-08-19T05:38:28;28.90;;;19.73;;
4434;SDS011;46552;52.150;8.428;2022-08-19T05:40:55;32.20;;;19.37;;
4434;SDS011;46552;52.150;8.428;2022-08-19T05:43:23;35.60;;;20.20;;
4434;SDS011;46552;52.150;8.428;2022-08-19T05:45:51;36.30;;;20.90;;
4434;SDS011;46552;52.150;8.428;2022-08-19T05:48:18;27.80;;;19.17;;
4434;SDS011;46552;52.150;8.428;2022-08-19T05:50:46;30.30;;;18.00;;
4434;SDS011;46552;52.150;8.428;2022-08-19T05:53:16;35.00;;;19.00;;
4434;SDS011;46552;52.150;8.428;2022-08-19T05:55:44;33.33;;;18.27;;
4434;SDS011;46552;52.150;8.428;2022-08-19T05:58:11;28.33;;;17.73;;
4434;SDS011;46552;52.150;8.428;2022-08-19T06:00:38;35.67;;;16.73;;
4434;SDS011;46552;52.150;8.428;2022-08-19T06:03:06;29.50;;;16.60;;
4434;SDS011;46552;52.150;8.428;2022-08-19T06:05:33;30.33;;;18.47;;
4434;SDS011;46552;52.150;8.428;2022-08-19T06:08:00;32.60;;;20.23;;
4434;SDS011;46552;52.150;8.428;2022-08-19T06:10:29;30.10;;;19.80;;
4434;SDS011;46552;52.150;8.428;2022-08-19T06:12:57;28.77;;;18.47;;
4434;SDS011;46552;52.150;8.428;2022-08-19T06:15:24;29.50;;;17.23;;
4434;SDS011;46552;52.150;8.428;2022-08-19T06:17:53;28.80;;;18.90;;
4434;SDS011;46552;52.150;8.428;2022-08-19T06:20:20;42.87;;;19.77;;
4434;SDS011;46552;52.150;8.428;2022-08-19T06:22:48;26.60;;;18.20;;
4434;SDS011;46552;52.150;8.428;2022-08-19T06:25:17;30.73;;;19.83;;
4434;SDS011;46552;52.150;8.428;2022-08-19T06:27:46;34.03;;;20.70;;
4434;SDS011;46552;52.150;8.428;2022-08-19T06:30:13;31.37;;;19.63;;
4434;SDS011;46552;52.150;8.428;2022-08-19T06:32:41;36.53;;;20.63;;
4434;SDS011;46552;52.150;8.428;2022-08-19T06:35:08;28.10;;;17.80;;
4434;SDS011;46552;52.150;8.428;2022-08-19T06:37:36;25.43;;;16.60;;
4434;SDS011;46552;52.150;8.428;2022-08-19T06:40:04;23.13;;;15.53;;
4434;SDS011;46552;52.150;8.428;2022-08-19T06:42:33;31.27;;;16.50;;
4434;SDS011;46552;52.150;8.428;2022-08-19T06:45:02;25.13;;;16.60;;
4434;SDS011;46552;52.150;8.428;2022-08-19T06:47:29;28.03;;;16.70;;
4434;SDS011;46552;52.150;8.428;2022-08-19T06:49:57;20.73;;;14.70;;
4434;SDS011;46552;52.150;8.428;2022-08-19T06:52:27;23.70;;;15.97;;
4434;SDS011;46552;52.150;8.428;2022-08-19T06:54:54;23.33;;;15.37;;
4434;SDS011;46552;52.150;8.428;2022-08-19T06:57:23;22.33;;;14.47;;
4434;SDS011;46552;52.150;8.428;2022-08-19T06:59:52;22.87;;;12.83;;
4434;SDS011;46552;52.150;8.428;2022-08-19T07:02:21;14.40;;;11.20;;
4434;SDS011;46552;52.150;8.428;2022-08-19T07:04:51;20.77;;;11.17;;
4434;SDS011;46552;52.150;8.428;2022-08-19T07:07:19;18.80;;;10.97;;
4434;SDS011;46552;52.150;8.428;2022-08-19T07:09:46;19.13;;;11.60;;
4434;SDS011;46552;52.150;8.428;2022-08-19T07:12:15;22.40;;;14.53;;
4434;SDS011;46552;52.150;8.428;2022-08-19T07:14:42;20.13;;;13.10;;
4434;SDS011;46552;52.150;8.428;2022-08-19T07:17:11;22.00;;;15.10;;
4434;SDS011;46552;52.150;8.428;2022-08-19T07:19:42;17.23;;;14.90;;
4434;SDS011;46552;52.150;8.428;2022-08-19T07:22:09;22.27;;;13.70;;
4434;SDS011;46552;52.150;8.428;2022-08-19T07:24:38;20.10;;;12.80;;
4434;SDS011;46552;52.150;8.428;2022-08-19T07:27:06;25.33;;;13.83;;
4434;SDS011;46552;52.150;8.428;2022-08-19T07:29:35;19.23;;;11.83;;
4434;SDS011;46552;52.150;8.428;2022-08-19T07:32:03;22.37;;;11.60;;
4434;SDS011;46552;52.150;8.428;2022-08-19T07:34:31;18.40;;;10.37;;
4434;SDS011;46552;52.150;8.428;2022-08-19T07:37:03;19.43;;;10.23;;
4434;SDS011;46552;52.150;8.428;2022-08-19T07:39:32;24.47;;;11.87;;
4434;SDS011;46552;52.150;8.428;2022-08-19T07:42:01;13.03;;;8.77;;
4434;SDS011;46552;52.150;8.428;2022-08-19T07:44:32;14.40;;;9.07;;
4434;SDS011;46552;52.150;8.428;2022-08-19T07:47:01;15.73;;;9.60;;
4434;SDS011;46552;52.150;8.428;2022-08-19T07:49:29;17.43;;;8.80;;
4434;SDS011;46552;52.150;8.428;2022-08-19T07:51:58;14.07;;;9.27;;
4434;SDS011;46552;52.150;8.428;2022-08-19T07:54:29;13.83;;;9.97;;
4434;SDS011;46552;52.150;8.428;2022-08-19T07:57:00;14.13;;;9.33;;
4434;SDS011;46552;52.150;8.428;2022-08-19T07:59:28;11.27;;;8.57;;
4434;SDS011;46552;52.150;8.428;2022-08-19T08:01:56;15.60;;;9.20;;
4434;SDS011;46552;52.150;8.428;2022-08-19T08:04:25;14.47;;;8.30;;
4434;SDS011;46552;52.150;8.428;2022-08-19T08:07:10;15.50;;;8.50;;
4434;SDS011;46552;52.150;8.428;2022-08-19T08:09:56;11.80;;;7.67;;
4434;SDS011;46552;52.150;8.428;2022-08-19T08:12:25;14.00;;;7.97;;
4434;SDS011;46552;52.150;8.428;2022-08-19T08:14:58;13.67;;;7.70;;
4434;SDS011;46552;52.150;8.428;2022-08-19T08:17:28;10.57;;;6.93;;
4434;SDS011;46552;52.150;8.428;2022-08-19T08:19:57;11.60;;;7.47;;
4434;SDS011;46552;52.150;8.428;2022-08-19T08:22:24;15.60;;;7.70;;
4434;SDS011;46552;52.150;8.428;2022-08-19T08:25:14;10.57;;;6.93;;
4434;SDS011;46552;52.150;8.428;2022-08-19T08:27:44;20.47;;;7.90;;
4434;SDS011;46552;52.150;8.428;2022-08-19T08:30:13;15.23;;;7.40;;
4434;SDS011;46552;52.150;8.428;2022-08-19T08:32:42;22.90;;;6.70;;
4434;SDS011;46552;52.150;8.428;2022-08-19T08:35:12;14.30;;;6.50;;
4434;SDS011;46552;52.150;8.428;2022-08-19T08:37:41;11.00;;;5.97;;
4434;SDS011;46552;52.150;8.428;2022-08-19T08:40:13;8.90;;;5.80;;
4434;SDS011;46552;52.150;8.428;2022-08-19T08:42:47;10.83;;;5.60;;
4434;SDS011;46552;52.150;8.428;2022-08-19T08:45:23;10.20;;;6.07;;
4434;SDS011;46552;52.150;8.428;2022-08-19T08:47:52;10.67;;;5.03;;
4434;SDS011;46552;52.150;8.428;2022-08-19T08:50:23;10.10;;;5.37;;
4434;SDS011;46552;52.150;8.428;2022-08-19T08:52:56;10.70;;;4.57;;
4434;SDS011;46552;52.150;8.428;2022-08-19T08:55:28;9.37;;;4.60;;
4434;SDS011;46552;52.150;8.428;2022-08-19T08:57:58;11.20;;;4.77;;
4434;SDS011;46552;52.150;8.428;2022-08-19T09:00:29;12.10;;;5.40;;
4434;SDS011;46552;52.150;8.428;2022-08-19T09:02:58;7.00;;;4.47;;
4434;SDS011;46552;52.150;8.428;2022-08-19T09:05:37;8.20;;;4.57;;
4434;SDS011;46552;52.150;8.428;2022-08-19T09:08:24;7.63;;;4.50;;
4434;SDS011;46552;52.150;8.428;2022-08-19T09:11:06;11.03;;;4.17;;
4434;SDS011;46552;52.150;8.428;2022-08-19T09:13:38;6.70;;;4.10;;
4434;SDS011;46552;52.150;8.428;2022-08-19T09:16:16;10.63;;;5.33;;
4434;SDS011;46552;52.150;8.428;2022-08-19T09:18:47;10.23;;;4.10;;
4434;SDS011;46552;52.150;8.428;2022-08-19T09:21:17;7.33;;;4.40;;
4434;SDS011;46552;52.150;8.428;2022-08-19T09:23:45;10.60;;;4.70;;
4434;SDS011;46552;52.150;8.428;2022-08-19T09:26:15;7.63;;;3.83;;
4434;SDS011;46552;52.150;8.428;2022-08-19T09:28:45;8.30;;;4.20;;
4434;SDS011;46552;52.150;8.428;2022-08-19T09:31:14;9.27;;;3.30;;
4434;SDS011;46552;52.150;8.428;2022-08-19T09:33:43;6.33;;;3.43;;
4434;SDS011;46552;52.150;8.428;2022-08-19T09:36:11;8.77;;;4.37;;
4434;SDS011;46552;52.150;8.428;2022-08-19T09:38:40;6.27;;;4.27;;
4434;SDS011;46552;52.150;8.428;2022-08-19T09:41:14;7.77;;;5.00;;
4434;SDS011;46552;52.150;8.428;2022-08-19T09:43:45;6.23;;;3.60;;
4434;SDS011;46552;52.150;8.428;2022-08-19T09:46:14;17.90;;;4.10;;
4434;SDS011;46552;52.150;8.428;2022-08-19T09:48:43;8.73;;;3.57;;
4434;SDS011;46552;52.150;8.428;2022-08-19T09:51:14;4.67;;;3.30;;
4434;SDS011;46552;52.150;8.428;2022-08-19T09:53:42;8.13;;;3.57;;
4434;SDS011;46552;52.150;8.428;2022-08-19T09:56:15;4.33;;;2.93;;
4434;SDS011;46552;52.150;8.428;2022-08-19T09:58:44;4.43;;;3.10;;
4434;SDS011;46552;52.150;8.428;2022-08-19T10:01:15;6.47;;;2.47;;
4434;SDS011;46552;52.150;8.428;2022-08-19T10:03:43;5.27;;;3.47;;
4434;SDS011;46552;52.150;8.428;2022-08-19T10:06:13;8.40;;;4.93;;
4434;SDS011;46552;52.150;8.428;2022-08-19T10:08:42;7.70;;;4.60;;
4434;SDS011;46552;52.150;8.428;2022-08-19T10:11:09;8.33;;;3.80;;
4434;SDS011;46552;52.150;8.428;2022-08-19T10:13:41;9.13;;;3.67;;
4434;SDS011;46552;52.150;8.428;2022-08-19T10:16:10;3.57;;;2.57;;
4434;SDS011;46552;52.150;8.428;2022-08-19T10:18:39;5.83;;;3.60;;
4434;SDS011;46552;52.150;8.428;2022-08-19T10:21:09;5.33;;;3.10;;
4434;SDS011;46552;52.150;8.428;2022-08-19T10:23:40;9.00;;;3.50;;
4434;SDS011;46552;52.150;8.428;2022-08-19T10:26:11;6.80;;;3.20;;
4434;SDS011;46552;52.150;8.428;2022-08-19T10:28:41;3.83;;;2.23;;
4434;SDS011;46552;52.150;8.428;2022-08-19T10:31:10;7.20;;;3.00;;
4434;SDS011;46552;52.150;8.428;2022-08-19T10:33:38;5.37;;;2.73;;
4434;SDS011;46552;52.150;8.428;2022-08-19T10:36:07;6.03;;;2.90;;
4434;SDS011;46552;52.150;8.428;2022-08-19T10:38:36;6.97;;;2.23;;
4434;SDS011;46552;52.150;8.428;2022-08-19T10:41:09;6.70;;;3.20;;
4434;SDS011;46552;52.150;8.428;2022-08-19T10:43:37;4.70;;;2.93;;
4434;SDS011;46552;52.150;8.428;2022-08-19T10:46:06;4.03;;;2.20;;
4434;SDS011;46552;52.150;8.428;2022-08-19T10:48:35;4.30;;;2.40;;
4434;SDS011;46552;52.150;8.428;2022-08-19T10:51:02;5.40;;;3.30;;
4434;SDS011;46552;52.150;8.428;2022-08-19T10:53:48;5.67;;;2.77;;
4434;SDS011;46552;52.150;8.428;2022-08-19T10:56:15;5.60;;;3.07;;
4434;SDS011;46552;52.150;8.428;2022-08-19T10:58:59;6.10;;;2.40;;
4434;SDS011;46552;52.150;8.428;2022-08-19T11:01:29;6.00;;;2.63;;
4434;SDS011;46552;52.150;8.428;2022-08-19T11:03:59;4.10;;;2.37;;
4434;SDS011;46552;52.150;8.428;2022-08-19T11:06:26;5.10;;;2.47;;
4434;SDS011;46552;52.150;8.428;2022-08-19T11:08:55;5.27;;;2.43;;
4434;SDS011;46552;52.150;8.428;2022-08-19T11:11:23;4.10;;;2.20;;
4434;SDS011;46552;52.150;8.428;2022-08-19T11:13:50;4.77;;;2.40;;
4434;SDS011;46552;52.150;8.428;2022-08-19T11:16:18;10.73;;;3.10;;
4434;SDS011;46552;52.150;8.428;2022-08-19T11:18:50;6.80;;;2.60;;
4434;SDS011;46552;52.150;8.428;2022-08-19T11:21:24;4.27;;;2.77;;
4434;SDS011;46552;52.150;8.428;2022-08-19T11:23:54;4.40;;;2.90;;
4434;SDS011;46552;52.150;8.428;2022-08-19T11:26:23;7.90;;;3.10;;
4434;SDS011;46552;52.150;8.428;2022-08-19T11:28:50;6.47;;;3.20;;
4434;SDS011;46552;52.150;8.428;2022-08-19T11:31:20;8.93;;;3.17;;
4434;SDS011;46552;52.150;8.428;2022-08-19T11:33:51;4.37;;;2.40;;
4434;SDS011;46552;52.150;8.428;2022-08-19T11:36:19;4.83;;;2.70;;
4434;SDS011;46552;52.150;8.428;2022-08-19T11:38:48;4.57;;;2.60;;
4434;SDS011;46552;52.150;8.428;2022-08-19T11:41:17;4.00;;;2.20;;
4434;SDS011;46552;52.150;8.428;2022-08-19T11:43:48;3.70;;;2.80;;
4434;SDS011;46552;52.150;8.428;2022-08-19T11:46:18;3.23;;;2.23;;
4434;SDS011;46552;52.150;8.428;2022-08-19T11:48:45;7.47;;;2.70;;
4434;SDS011;46552;52.150;8.428;2022-08-19T11:51:15;4.40;;;3.27;;
4434;SDS011;46552;52.150;8.428;2022-08-19T11:53:44;4.67;;;2.87;;
4434;SDS011;46552;52.150;8.428;2022-08-19T11:56:11;3.73;;;2.60;;
4434;SDS011;46552;52.150;8.428;2022-08-19T11:58:39;4.60;;;2.70;;
4434;SDS011;46552;52.150;8.428;2022-08-19T12:01:07;4.77;;;2.37;;
4434;SDS011;46552;52.150;8.428;2022-08-19T12:03:36;6.70;;;2.80;;
4434;SDS011;46552;52.150;8.428;2022-08-19T12:06:04;7.73;;;2.37;;
4434;SDS011;46552;52.150;8.428;2022-08-19T12:08:34;3.83;;;2.00;;
4434;SDS011;46552;52.150;8.428;2022-08-19T12:11:02;3.70;;;2.20;;
4434;SDS011;46552;52.150;8.428;2022-08-19T12:13:33;3.90;;;2.80;;
4434;SDS011;46552;52.150;8.428;2022-08-19T12:16:01;3.33;;;2.83;;
4434;SDS011;46552;52.150;8.428;2022-08-19T12:18:34;5.50;;;2.23;;
4434;SDS011;46552;52.150;8.428;2022-08-19T12:21:01;4.10;;;2.17;;
4434;SDS011;46552;52.150;8.428;2022-08-19T12:23:29;7.23;;;3.63;;
4434;SDS011;46552;52.150;8.428;2022-08-19T12:25:57;9.63;;;2.30;;
4434;SDS011;46552;52.150;8.428;2022-08-19T12:28:24;5.90;;;3.27;;
4434;SDS011;46552;52.150;8.428;2022-08-19T12:30:53;8.90;;;3.27;;
4434;SDS011;46552;52.150;8.428;2022-08-19T12:33:22;5.63;;;2.63;;
4434;SDS011;46552;52.150;8.428;2022-08-19T12:35:52;4.13;;;2.40;;
4434;SDS011;46552;52.150;8.428;2022-08-19T12:38:21;5.27;;;2.27;;
4434;SDS011;46552;52.150;8.428;2022-08-19T12:40:49;7.87;;;2.30;;
4434;SDS011;46552;52.150;8.428;2022-08-19T12:43:18;4.73;;;2.63;;
4434;SDS011;46552;52.150;8.428;2022-08-19T12:45:46;5.40;;;2.17;;
4434;SDS011;46552;52.150;8.428;2022-08-19T12:48:13;12.60;;;3.10;;
4434;SDS011;46552;52.150;8.428;2022-08-19T12:50:40;4.80;;;2.90;;
4434;SDS011;46552;52.150;8.428;2022-08-19T12:53:09;8.10;;;2.67;;
4434;SDS011;46552;52.150;8.428;2022-08-19T12:55:37;4.30;;;2.60;;
4434;SDS011;46552;52.150;8.428;2022-08-19T12:58:04;8.50;;;2.87;;
4434;SDS011;46552;52.150;8.428;2022-08-19T13:00:33;5.37;;;2.70;;
4434;SDS011;46552;52.150;8.428;2022-08-19T13:03:00;5.00;;;2.97;;
4434;SDS011;46552;52.150;8.428;2022-08-19T13:05:28;5.57;;;2.60;;
4434;SDS011;46552;52.150;8.428;2022-08-19T13:07:57;4.37;;;2.97;;
4434;SDS011;46552;52.150;8.428;2022-08-19T13:10:26;4.93;;;3.10;;
4434;SDS011;46552;52.150;8.428;2022-08-19T13:12:54;4.30;;;2.50;;
4434;SDS011;46552;52.150;8.428;2022-08-19T13:15:24;4.63;;;2.63;;
4434;SDS011;46552;52.150;8.428;2022-08-19T13:17:57;5.30;;;2.90;;
4434;SDS011;46552;52.150;8.428;2022-08-19T13:20:24;4.20;;;2.60;;
4434;SDS011;46552;52.150;8.428;2022-08-19T13:22:52;5.20;;;3.03;;
4434;SDS011;46552;52.150;8.428;2022-08-19T13:25:22;3.20;;;2.17;;
4434;SDS011;46552;52.150;8.428;2022-08-19T13:27:49;4.40;;;2.73;;
4434;SDS011;46552;52.150;8.428;2022-08-19T13:30:17;3.40;;;2.63;;
4434;SDS011;46552;52.150;8.428;2022-08-19T13:33:05;4.97;;;3.03;;
4434;SDS011;46552;52.150;8.428;2022-08-19T13:35:39;3.70;;;2.60;;
4434;SDS011;46552;52.150;8.428;2022-08-19T13:38:08;4.23;;;2.30;;
4434;SDS011;46552;52.150;8.428;2022-08-19T13:40:35;5.73;;;3.10;;
4434;SDS011;46552;52.150;8.428;2022-08-19T13:43:04;4.20;;;2.87;;
4434;SDS011;46552;52.150;8.428;2022-08-19T13:45:33;5.40;;;2.60;;
4434;SDS011;46552;52.150;8.428;2022-08-19T13:48:00;3.83;;;2.50;;
4434;SDS011;46552;52.150;8.428;2022-08-19T13:50:33;5.67;;;2.97;;
4434;SDS011;46552;52.150;8.428;2022-08-19T13:53:02;3.50;;;1.70;;
4434;SDS011;46552;52.150;8.428;2022-08-19T13:55:30;3.97;;;2.33;;
4434;SDS011;46552;52.150;8.428;2022-08-19T13:57:58;4.47;;;2.80;;
4434;SDS011;46552;52.150;8.428;2022-08-19T14:00:27;5.80;;;2.87;;
4434;SDS011;46552;52.150;8.428;2022-08-19T14:02:57;8.97;;;2.40;;
4434;SDS011;46552;52.150;8.428;2022-08-19T14:05:25;4.87;;;2.47;;
4434;SDS011;46552;52.150;8.428;2022-08-19T14:07:56;5.90;;;2.20;;
4434;SDS011;46552;52.150;8.428;2022-08-19T14:10:23;8.57;;;2.83;;
4434;SDS011;46552;52.150;8.428;2022-08-19T14:12:52;6.50;;;2.87;;
4434;SDS011;46552;52.150;8.428;2022-08-19T14:15:21;7.40;;;2.30;;
4434;SDS011;46552;52.150;8.428;2022-08-19T14:17:48;7.63;;;2.83;;
4434;SDS011;46552;52.150;8.428;2022-08-19T14:20:16;4.50;;;2.20;;
4434;SDS011;46552;52.150;8.428;2022-08-19T14:22:43;4.50;;;2.70;;
4434;SDS011;46552;52.150;8.428;2022-08-19T14:25:14;7.43;;;2.53;;
4434;SDS011;46552;52.150;8.428;2022-08-19T14:27:43;3.57;;;2.40;;
4434;SDS011;46552;52.150;8.428;2022-08-19T14:30:11;4.27;;;2.80;;
4434;SDS011;46552;52.150;8.428;2022-08-19T14:32:40;3.77;;;2.60;;
4434;SDS011;46552;52.150;8.428;2022-08-19T14:35:10;3.93;;;2.60;;
4434;SDS011;46552;52.150;8.428;2022-08-19T14:37:40;8.33;;;2.60;;
4434;SDS011;46552;52.150;8.428;2022-08-19T14:40:08;7.70;;;3.00;;
4434;SDS011;46552;52.150;8.428;2022-08-19T14:42:38;5.73;;;2.50;;
4434;SDS011;46552;52.150;8.428;2022-08-19T14:45:06;4.23;;;2.77;;
4434;SDS011;46552;52.150;8.428;2022-08-19T14:47:35;4.97;;;2.70;;
4434;SDS011;46552;52.150;8.428;2022-08-19T14:50:03;4.30;;;2.63;;
4434;SDS011;46552;52.150;8.428;2022-08-19T14:52:32;4.77;;;2.70;;
4434;SDS011;46552;52.150;8.428;2022-08-19T14:54:59;5.77;;;2.90;;
4434;SDS011;46552;52.150;8.428;2022-08-19T14:57:26;4.03;;;2.73;;
4434;SDS011;46552;52.150;8.428;2022-08-19T14:59:56;6.43;;;2.40;;
4434;SDS011;46552;52.150;8.428;2022-08-19T15:02:23;5.83;;;3.03;;